Terminal Aerodrome Forecast
Issued by NWS Cleveland, OH

Home | Current Version | Previous Version | Text Only | Print | Product List | Glossary On
Versions: 1 2 3 4 5 6 7 8 9 10 11 12 13 14 15 16 17 18 19 20 21 22
000
FTUS41 KCLE 260610 AAA
TAFCAK
TAF AMD
KCAK 260610Z 2606/2706 27012G18KT P6SM -SHSN SCT025 OVC035
      TEMPO 2606/2609 3SM -SHSN BKN028
     FM261000 27010KT P6SM SCT025 OVC035
     FM261900 22010KT P6SM SCT035=

USA.gov is the U.S. government's official web portal to all federal, state and local government web resources and services.